Time;durP1;ratioP1;P1;durP2;ratioP2;P2;SDS_P1;SDS_P2;PMS_P1;PMS_P2;Temp;Humidity;BMP_temperature;BMP_pressure;BME280_temperature;BME280_humidity;BME280_pressure;Samples;Min_cycle;Max_cycle;Signal;HPM_P1;HPM_P2
2022/01/02 00:01:08;;;;;;;11.23;5.35;;;;;;;;;;4993757;28;94032;-70
2022/01/02 00:03:38;;;;;;;8.48;5.25;;;;;;;;;;4993401;28;94672;-70
2022/01/02 00:06:04;;;;;;;7.32;4.97;;;;;;;;;;4993630;28;92447;-70
2022/01/02 00:08:31;;;;;;;9.57;5.50;;;;;;;;;;5009966;28;94816;-71
2022/01/02 00:10:59;;;;;;;8.40;5.53;;;;;;;;;;5012402;28;94161;-71
2022/01/02 00:13:33;;;;;;;8.77;5.55;;;;;;;;;;5009450;28;92516;-71
2022/01/02 00:16:05;;;;;;;10.43;5.90;;;;;;;;;;5016182;28;94053;-71
2022/01/02 00:18:38;;;;;;;13.63;5.82;;;;;;;;;;5012279;28;92443;-71
2022/01/02 00:21:08;;;;;;;8.05;5.70;;;;;;;;;;4996039;28;94082;-70
2022/01/02 00:23:48;;;;;;;12.02;6.30;;;;;;;;;;4985242;28;93301;-71
2022/01/02 00:26:17;;;;;;;12.93;6.18;;;;;;;;;;4973308;28;91706;-71
2022/01/02 00:28:46;;;;;;;9.23;6.93;;;;;;;;;;4989396;28;93314;-71
2022/01/02 00:31:13;;;;;;;8.90;6.50;;;;;;;;;;4990082;28;93004;-71
2022/01/02 00:33:40;;;;;;;9.02;6.25;;;;;;;;;;4991206;28;94865;-71
2022/01/02 00:36:06;;;;;;;8.77;6.50;;;;;;;;;;4999436;28;95707;-70
2022/01/02 00:38:35;;;;;;;10.20;6.50;;;;;;;;;;4995623;28;94653;-70
2022/01/02 00:41:01;;;;;;;13.85;7.13;;;;;;;;;;4991496;28;92863;-70
2022/01/02 00:43:47;;;;;;;11.05;6.53;;;;;;;;;;4992075;28;93032;-70
2022/01/02 00:46:14;;;;;;;18.25;6.88;;;;;;;;;;4983778;28;94380;-70
2022/01/02 00:48:42;;;;;;;14.50;7.03;;;;;;;;;;4984854;28;92641;-70
2022/01/02 00:51:13;;;;;;;12.27;7.25;;;;;;;;;;4981174;28;95018;-70
2022/01/02 00:53:42;;;;;;;11.10;6.95;;;;;;;;;;4993687;28;92500;-70
2022/01/02 00:56:10;;;;;;;10.70;6.82;;;;;;;;;;4991226;28;94173;-70
2022/01/02 00:58:45;;;;;;;14.05;6.53;;;;;;;;;;4992672;28;95502;-70
2022/01/02 01:01:14;;;;;;;15.13;7.07;;;;;;;;;;4995150;28;92575;-69
2022/01/02 01:03:41;;;;;;;15.18;6.60;;;;;;;;;;4993080;28;93907;-69
2022/01/02 01:06:09;;;;;;;15.15;7.47;;;;;;;;;;4994982;28;92505;-70
2022/01/02 01:08:36;;;;;;;13.18;6.97;;;;;;;;;;4994582;28;93222;-70
2022/01/02 01:11:04;;;;;;;14.63;6.57;;;;;;;;;;4994738;28;93308;-70
2022/01/02 01:13:32;;;;;;;14.80;7.50;;;;;;;;;;4993164;28;92459;-69
2022/01/02 01:15:59;;;;;;;13.18;7.38;;;;;;;;;;4991629;28;94649;-69
2022/01/02 01:18:26;;;;;;;14.73;7.38;;;;;;;;;;4989644;28;95410;-70
2022/01/02 01:20:53;;;;;;;12.80;6.72;;;;;;;;;;4995294;28;92665;-69
2022/01/02 01:23:20;;;;;;;12.35;6.43;;;;;;;;;;4991702;28;94887;-70
2022/01/02 01:25:49;;;;;;;20.50;6.88;;;;;;;;;;4984435;28;93212;-69
2022/01/02 01:28:17;;;;;;;12.32;6.28;;;;;;;;;;4996176;28;94219;-69
2022/01/02 01:30:43;;;;;;;9.88;6.25;;;;;;;;;;4976603;28;93132;-69
2022/01/02 01:33:10;;;;;;;12.85;6.65;;;;;;;;;;4994761;28;93602;-70
2022/01/02 01:35:37;;;;;;;15.88;7.28;;;;;;;;;;4994730;28;92790;-70
2022/01/02 01:38:03;;;;;;;9.30;5.72;;;;;;;;;;4995195;28;95898;-70
2022/01/02 01:40:37;;;;;;;19.52;6.85;;;;;;;;;;4993833;28;91904;-69
2022/01/02 01:43:04;;;;;;;15.32;7.28;;;;;;;;;;4978139;28;93776;-70
2022/01/02 01:45:38;;;;;;;16.50;6.90;;;;;;;;;;4990287;28;93775;-69
2022/01/02 01:48:06;;;;;;;15.43;6.72;;;;;;;;;;4997423;28;94933;-69
2022/01/02 01:50:39;;;;;;;12.38;6.45;;;;;;;;;;4994071;28;95502;-71
2022/01/02 01:53:08;;;;;;;17.55;6.90;;;;;;;;;;4991547;28;92578;-69
2022/01/02 01:55:36;;;;;;;14.27;5.88;;;;;;;;;;5011345;28;93906;-69
2022/01/02 01:58:04;;;;;;;15.52;6.85;;;;;;;;;;4975661;28;93011;-69
2022/01/02 02:00:34;;;;;;;14.45;7.30;;;;;;;;;;4973478;28;92798;-70
2022/01/02 02:03:06;;;;;;;15.00;6.38;;;;;;;;;;4987033;28;95165;-70
2022/01/02 02:05:33;;;;;;;13.48;5.70;;;;;;;;;;5013055;28;94809;-70
2022/01/02 02:07:59;;;;;;;14.95;5.80;;;;;;;;;;4994430;28;94247;-70
2022/01/02 02:10:34;;;;;;;17.55;6.95;;;;;;;;;;4993425;28;94834;-70
2022/01/02 02:13:04;;;;;;;14.77;5.93;;;;;;;;;;4991185;28;95401;-70
2022/01/02 02:15:35;;;;;;;11.73;5.80;;;;;;;;;;4993920;28;97683;-70
2022/01/02 02:18:02;;;;;;;12.48;5.72;;;;;;;;;;4982096;28;95820;-70
2022/01/02 02:20:30;;;;;;;13.68;5.47;;;;;;;;;;4992299;28;93463;-70
2022/01/02 02:22:59;;;;;;;12.45;5.43;;;;;;;;;;4991507;28;94204;-70
2022/01/02 02:25:27;;;;;;;19.83;5.95;;;;;;;;;;4991810;28;95622;-70
2022/01/02 02:28:05;;;;;;;15.52;6.82;;;;;;;;;;4995439;28;92846;-70
2022/01/02 02:30:34;;;;;;;12.10;6.03;;;;;;;;;;4992920;28;93405;-70
2022/01/02 02:33:02;;;;;;;14.55;6.10;;;;;;;;;;4998696;28;92449;-70
2022/01/02 02:35:29;;;;;;;16.45;5.30;;;;;;;;;;4992938;28;93656;-70
2022/01/02 02:37:56;;;;;;;15.23;6.63;;;;;;;;;;4990252;28;97845;-69
2022/01/02 02:40:24;;;;;;;19.80;5.68;;;;;;;;;;4993572;28;92522;-69
2022/01/02 02:43:00;;;;;;;12.85;5.18;;;;;;;;;;4994942;28;92978;-69
2022/01/02 02:51:05;;;;;;;18.65;5.53;;;;;;;;;;4975405;28;93151;-69
2022/01/02 02:53:38;;;;;;;23.73;5.25;;;;;;;;;;4991674;28;93235;-69
2022/01/02 02:56:14;;;;;;;12.50;4.93;;;;;;;;;;4993621;28;95328;-69
2022/01/02 02:58:41;;;;;;;14.82;4.88;;;;;;;;;;4991351;28;93131;-69
2022/01/02 03:01:14;;;;;;;17.33;5.53;;;;;;;;;;4992160;28;92566;-69
2022/01/02 03:03:43;;;;;;;26.02;5.25;;;;;;;;;;4989131;28;95195;-70
2022/01/02 03:06:10;;;;;;;13.90;4.63;;;;;;;;;;4992007;28;95368;-70
2022/01/02 03:08:37;;;;;;;8.98;4.57;;;;;;;;;;5002007;28;94458;-70
2022/01/02 03:11:04;;;;;;;14.80;5.40;;;;;;;;;;4995621;28;93485;-70
2022/01/02 03:13:30;;;;;;;15.20;4.43;;;;;;;;;;4993454;28;93170;-70
2022/01/02 03:15:57;;;;;;;16.63;5.05;;;;;;;;;;4993209;28;92928;-70
2022/01/02 03:18:23;;;;;;;16.45;4.47;;;;;;;;;;4952568;28;1103337;-70
2022/01/02 03:20:50;;;;;;;10.25;3.85;;;;;;;;;;4992960;28;91760;-70
2022/01/02 03:23:17;;;;;;;17.58;5.00;;;;;;;;;;4991798;28;94633;-70
2022/01/02 03:25:43;;;;;;;16.30;4.85;;;;;;;;;;4991504;28;94883;-70
2022/01/02 03:28:09;;;;;;;11.05;4.43;;;;;;;;;;4986936;28;95167;-70
2022/01/02 03:30:36;;;;;;;12.05;4.03;;;;;;;;;;4972580;28;98032;-70
2022/01/02 03:33:03;;;;;;;16.75;4.63;;;;;;;;;;4981445;28;92758;-70
2022/01/02 03:35:30;;;;;;;15.63;4.65;;;;;;;;;;4995370;28;92505;-70
2022/01/02 03:37:56;;;;;;;12.52;4.43;;;;;;;;;;5023712;28;96036;-70
2022/01/02 03:40:23;;;;;;;11.65;4.68;;;;;;;;;;4992635;28;92480;-70
2022/01/02 03:42:51;;;;;;;9.68;4.15;;;;;;;;;;5009171;28;95777;-70
2022/01/02 03:45:17;;;;;;;8.57;4.97;;;;;;;;;;4990908;28;94935;-70
2022/01/02 03:47:44;;;;;;;11.50;4.50;;;;;;;;;;4996387;28;92760;-71
2022/01/02 03:50:10;;;;;;;13.77;5.10;;;;;;;;;;5012799;28;94381;-71
2022/01/02 03:52:37;;;;;;;14.50;4.78;;;;;;;;;;4980150;28;97308;-70
2022/01/02 03:55:05;;;;;;;12.13;4.32;;;;;;;;;;5009290;28;92519;-70
2022/01/02 03:57:31;;;;;;;10.73;4.78;;;;;;;;;;4973825;28;93552;-71
2022/01/02 03:59:57;;;;;;;19.13;5.13;;;;;;;;;;4991632;28;92875;-70
2022/01/02 04:02:24;;;;;;;17.77;4.32;;;;;;;;;;4996297;28;92859;-70
2022/01/02 04:04:51;;;;;;;10.30;4.47;;;;;;;;;;5000235;28;95777;-70
2022/01/02 04:07:17;;;;;;;14.45;4.55;;;;;;;;;;4991118;28;92884;-71
2022/01/02 04:09:44;;;;;;;8.90;3.88;;;;;;;;;;4993644;28;92781;-71
2022/01/02 04:12:10;;;;;;;20.17;4.40;;;;;;;;;;4993756;28;93345;-70
2022/01/02 04:14:36;;;;;;;12.43;4.82;;;;;;;;;;4988554;28;93007;-70
2022/01/02 04:17:04;;;;;;;16.10;4.07;;;;;;;;;;4998503;28;95366;-70
2022/01/02 04:19:30;;;;;;;13.38;3.92;;;;;;;;;;5003712;28;92517;-70
2022/01/02 04:21:57;;;;;;;12.48;4.05;;;;;;;;;;4991725;28;94880;-70
2022/01/02 04:24:23;;;;;;;10.10;3.92;;;;;;;;;;4988662;28;93410;-71
2022/01/02 04:26:50;;;;;;;10.60;4.18;;;;;;;;;;4974170;28;94332;-71
2022/01/02 04:29:17;;;;;;;11.57;4.38;;;;;;;;;;5007743;28;95353;-70
2022/01/02 04:31:43;;;;;;;7.57;3.92;;;;;;;;;;4992687;28;94000;-70
2022/01/02 04:34:10;;;;;;;18.98;4.88;;;;;;;;;;4990092;28;91790;-70
2022/01/02 04:36:36;;;;;;;13.23;4.07;;;;;;;;;;4973324;28;92479;-70
2022/01/02 04:39:03;;;;;;;12.65;4.15;;;;;;;;;;4976436;28;92909;-70
2022/01/02 04:41:29;;;;;;;16.42;4.13;;;;;;;;;;4990100;28;94940;-70
2022/01/02 04:43:55;;;;;;;12.57;5.07;;;;;;;;;;4991734;28;95512;-70
2022/01/02 04:46:22;;;;;;;8.93;3.33;;;;;;;;;;4988862;28;94269;-70
2022/01/02 04:48:48;;;;;;;10.27;4.10;;;;;;;;;;4995149;28;93907;-71
2022/01/02 04:51:15;;;;;;;23.05;4.63;;;;;;;;;;4991380;28;94015;-70
2022/01/02 04:53:47;;;;;;;12.80;3.90;;;;;;;;;;4991025;28;92640;-70
2022/01/02 04:56:16;;;;;;;14.98;4.50;;;;;;;;;;4987398;28;94863;-71
2022/01/02 04:58:43;;;;;;;21.15;4.22;;;;;;;;;;4971871;28;94942;-71
2022/01/02 05:01:14;;;;;;;17.85;5.75;;;;;;;;;;5015692;28;92531;-71
2022/01/02 05:03:41;;;;;;;12.82;4.45;;;;;;;;;;4990066;28;94374;-71
2022/01/02 05:06:08;;;;;;;13.55;4.13;;;;;;;;;;4989430;28;94914;-71
2022/01/02 05:08:34;;;;;;;13.32;4.43;;;;;;;;;;4970984;28;96467;-71
2022/01/02 05:11:01;;;;;;;14.32;4.60;;;;;;;;;;5021706;28;95015;-71
2022/01/02 05:13:27;;;;;;;10.90;4.60;;;;;;;;;;5023066;28;92490;-71
2022/01/02 05:15:54;;;;;;;15.82;4.40;;;;;;;;;;4990515;28;95374;-71
2022/01/02 05:18:22;;;;;;;13.80;4.82;;;;;;;;;;4976900;28;98702;-71
2022/01/02 05:20:48;;;;;;;13.15;4.60;;;;;;;;;;4990602;28;92849;-71
2022/01/02 05:23:16;;;;;;;12.07;5.40;;;;;;;;;;4993322;28;95205;-71
2022/01/02 05:25:43;;;;;;;13.38;4.53;;;;;;;;;;4998611;28;92644;-71
2022/01/02 05:28:12;;;;;;;16.45;4.97;;;;;;;;;;4991873;28;95586;-71
2022/01/02 05:30:39;;;;;;;14.88;4.72;;;;;;;;;;4989000;28;96575;-71
2022/01/02 05:33:07;;;;;;;8.68;3.78;;;;;;;;;;4990608;28;92733;-70
2022/01/02 05:35:33;;;;;;;10.95;3.95;;;;;;;;;;4990684;28;94344;-71
2022/01/02 05:38:01;;;;;;;11.65;4.30;;;;;;;;;;4991286;28;93399;-71
2022/01/02 05:40:32;;;;;;;14.32;4.47;;;;;;;;;;4990775;28;92586;-71
2022/01/02 05:42:59;;;;;;;11.48;4.57;;;;;;;;;;4994268;28;94057;-70
2022/01/02 05:45:25;;;;;;;11.70;4.75;;;;;;;;;;4990483;28;92512;-70
2022/01/02 05:47:52;;;;;;;10.27;4.22;;;;;;;;;;4992992;28;92839;-71
2022/01/02 05:50:20;;;;;;;9.93;4.25;;;;;;;;;;5022618;28;95800;-71
2022/01/02 05:52:46;;;;;;;16.05;5.40;;;;;;;;;;4989688;28;92524;-71
2022/01/02 05:55:13;;;;;;;18.63;4.70;;;;;;;;;;4989082;28;95263;-69
2022/01/02 05:57:40;;;;;;;10.60;4.95;;;;;;;;;;4991124;28;95687;-69
2022/01/02 06:00:08;;;;;;;10.95;4.65;;;;;;;;;;4989050;28;92589;-69
2022/01/02 06:02:42;;;;;;;11.25;4.65;;;;;;;;;;4991131;28;95299;-68
2022/01/02 06:05:11;;;;;;;9.50;3.90;;;;;;;;;;4991967;28;94073;-70
2022/01/02 06:07:38;;;;;;;13.32;4.65;;;;;;;;;;4989673;28;95512;-68
2022/01/02 06:10:05;;;;;;;15.77;5.30;;;;;;;;;;4992468;28;95951;-69
2022/01/02 06:12:33;;;;;;;10.32;4.95;;;;;;;;;;4993263;28;92364;-70
2022/01/02 06:15:00;;;;;;;10.98;4.50;;;;;;;;;;4993959;28;94810;-69
2022/01/02 06:17:27;;;;;;;7.63;4.18;;;;;;;;;;4990137;28;94408;-70
2022/01/02 06:19:53;;;;;;;7.07;4.00;;;;;;;;;;5005235;28;95475;-69
2022/01/02 06:22:20;;;;;;;13.85;4.47;;;;;;;;;;5011205;28;96502;-69
2022/01/02 06:24:46;;;;;;;9.88;4.50;;;;;;;;;;4990487;28;93131;-69
2022/01/02 06:27:12;;;;;;;12.13;4.05;;;;;;;;;;4976988;28;92469;-69
2022/01/02 06:29:39;;;;;;;8.93;3.88;;;;;;;;;;4992744;28;93525;-69
2022/01/02 06:32:05;;;;;;;6.03;3.33;;;;;;;;;;4993985;28;92478;-69
2022/01/02 06:34:32;;;;;;;6.05;3.63;;;;;;;;;;4993767;28;95673;-70
2022/01/02 06:36:59;;;;;;;8.25;3.65;;;;;;;;;;4996016;28;92747;-70
2022/01/02 06:39:25;;;;;;;4.82;3.80;;;;;;;;;;4988414;28;92500;-70
2022/01/02 06:41:54;;;;;;;9.40;3.95;;;;;;;;;;4994919;28;93231;-69
2022/01/02 06:44:20;;;;;;;5.32;3.35;;;;;;;;;;4992273;28;98240;-70
2022/01/02 06:46:48;;;;;;;10.45;3.53;;;;;;;;;;4993498;28;93028;-69
2022/01/02 06:49:15;;;;;;;7.18;3.80;;;;;;;;;;4994683;28;95489;-70
2022/01/02 06:51:48;;;;;;;7.90;3.20;;;;;;;;;;4993745;28;92814;-70
2022/01/02 06:54:15;;;;;;;8.50;3.22;;;;;;;;;;4995141;28;92870;-70
2022/01/02 06:56:42;;;;;;;10.32;3.92;;;;;;;;;;4992641;28;93511;-69
2022/01/02 06:59:08;;;;;;;6.25;3.65;;;;;;;;;;4996880;28;92819;-69
2022/01/02 07:01:35;;;;;;;7.10;4.13;;;;;;;;;;4993127;28;95403;-69
2022/01/02 07:04:02;;;;;;;8.18;3.97;;;;;;;;;;4986509;28;93677;-70
2022/01/02 07:06:28;;;;;;;10.60;4.07;;;;;;;;;;4972575;28;93007;-70
2022/01/02 07:08:54;;;;;;;9.55;3.58;;;;;;;;;;5010737;28;94924;-69
2022/01/02 07:11:21;;;;;;;9.57;3.70;;;;;;;;;;4996436;28;94179;-69
2022/01/02 07:13:47;;;;;;;8.80;4.22;;;;;;;;;;4994329;28;93174;-69
2022/01/02 07:16:13;;;;;;;9.85;3.65;;;;;;;;;;4991576;28;94585;-69
2022/01/02 07:18:40;;;;;;;5.05;3.38;;;;;;;;;;4992927;28;92498;-69
2022/01/02 07:21:06;;;;;;;14.18;3.90;;;;;;;;;;5007785;28;93975;-70
2022/01/02 07:23:32;;;;;;;7.60;3.95;;;;;;;;;;4996313;28;95089;-70
2022/01/02 07:25:59;;;;;;;10.25;3.97;;;;;;;;;;5002486;28;92568;-69
2022/01/02 07:28:29;;;;;;;7.80;3.88;;;;;;;;;;4994304;28;92719;-70
2022/01/02 07:30:55;;;;;;;7.50;3.38;;;;;;;;;;5002637;28;94214;-70
2022/01/02 07:33:22;;;;;;;10.55;3.70;;;;;;;;;;5006603;28;95141;-69
2022/01/02 07:35:48;;;;;;;14.60;3.97;;;;;;;;;;5003949;28;94519;-69
2022/01/02 07:38:29;;;;;;;7.05;4.15;;;;;;;;;;4997863;28;92536;-70
2022/01/02 07:40:56;;;;;;;11.52;4.80;;;;;;;;;;5002533;28;93792;-70
2022/01/02 07:43:22;;;;;;;16.08;3.70;;;;;;;;;;4990511;28;94230;-69
2022/01/02 07:45:48;;;;;;;9.18;3.75;;;;;;;;;;4996538;28;92880;-69
2022/01/02 07:48:15;;;;;;;8.23;3.35;;;;;;;;;;4987360;28;93756;-70
2022/01/02 07:50:41;;;;;;;5.82;4.20;;;;;;;;;;5004553;28;93704;-70
2022/01/02 07:53:08;;;;;;;8.30;3.58;;;;;;;;;;5013839;28;92502;-70
2022/01/02 07:55:34;;;;;;;8.90;3.38;;;;;;;;;;5005941;28;94448;-70
2022/01/02 07:58:00;;;;;;;7.32;3.92;;;;;;;;;;4995409;28;95143;-70
2022/01/02 08:00:27;;;;;;;11.77;3.72;;;;;;;;;;4993080;28;95563;-70
2022/01/02 08:02:53;;;;;;;14.52;3.40;;;;;;;;;;5004659;28;94686;-70
2022/01/02 08:05:19;;;;;;;13.15;4.22;;;;;;;;;;4994130;28;92524;-70
2022/01/02 08:07:46;;;;;;;11.70;3.67;;;;;;;;;;5000110;28;94306;-70
2022/01/02 08:10:12;;;;;;;8.40;3.70;;;;;;;;;;4997457;28;94014;-70
2022/01/02 08:12:38;;;;;;;9.23;3.70;;;;;;;;;;5005039;28;93079;-70
2022/01/02 08:15:06;;;;;;;8.63;4.53;;;;;;;;;;5011416;27;93854;-70
2022/01/02 08:17:32;;;;;;;7.68;3.42;;;;;;;;;;4997382;28;92603;-70
2022/01/02 08:19:58;;;;;;;4.25;3.40;;;;;;;;;;5007086;28;93886;-71
2022/01/02 08:22:25;;;;;;;6.97;3.53;;;;;;;;;;4997722;28;96534;-70
2022/01/02 08:24:51;;;;;;;8.60;3.17;;;;;;;;;;4994643;28;92803;-69
2022/01/02 08:27:18;;;;;;;5.40;3.53;;;;;;;;;;4984517;28;94057;-70
2022/01/02 08:29:44;;;;;;;8.50;3.95;;;;;;;;;;4988153;28;94332;-70
2022/01/02 08:32:10;;;;;;;9.10;3.30;;;;;;;;;;4994593;28;92504;-70
2022/01/02 08:34:37;;;;;;;4.75;3.75;;;;;;;;;;4990408;28;93953;-70
2022/01/02 08:37:03;;;;;;;6.18;3.10;;;;;;;;;;4977580;28;94187;-70
2022/01/02 08:39:30;;;;;;;7.97;3.47;;;;;;;;;;4983933;28;93432;-70
2022/01/02 08:41:57;;;;;;;10.32;3.20;;;;;;;;;;4977491;28;94077;-70
2022/01/02 08:44:23;;;;;;;11.93;3.70;;;;;;;;;;4985584;28;92445;-70
2022/01/02 08:46:50;;;;;;;7.70;3.80;;;;;;;;;;4971831;28;94962;-70
2022/01/02 08:49:17;;;;;;;8.13;3.70;;;;;;;;;;4986473;28;94269;-70
2022/01/02 08:51:43;;;;;;;9.07;3.67;;;;;;;;;;4973818;28;93091;-69
2022/01/02 08:54:10;;;;;;;6.35;3.78;;;;;;;;;;4984003;28;94277;-71
2022/01/02 08:56:37;;;;;;;7.47;4.30;;;;;;;;;;4981591;28;94671;-69
2022/01/02 08:59:03;;;;;;;9.95;3.90;;;;;;;;;;4986367;28;93022;-69
2022/01/02 09:01:29;;;;;;;12.05;4.00;;;;;;;;;;4976862;28;94237;-70
2022/01/02 09:03:56;;;;;;;8.35;3.78;;;;;;;;;;4975697;28;93163;-70
2022/01/02 09:06:22;;;;;;;7.95;3.85;;;;;;;;;;4979294;28;92503;-70
2022/01/02 09:08:48;;;;;;;4.30;3.17;;;;;;;;;;4979704;28;94927;-69
2022/01/02 09:11:15;;;;;;;6.75;3.60;;;;;;;;;;4983861;28;94922;-69
2022/01/02 09:13:41;;;;;;;10.85;4.07;;;;;;;;;;4976826;28;95508;-69
2022/01/02 09:16:08;;;;;;;7.47;3.70;;;;;;;;;;4975513;28;93508;-69
2022/01/02 09:18:34;;;;;;;9.45;4.18;;;;;;;;;;4981169;28;92738;-70
2022/01/02 09:21:00;;;;;;;10.23;3.53;;;;;;;;;;4998082;28;93936;-71
2022/01/02 09:23:27;;;;;;;5.45;4.03;;;;;;;;;;4977854;28;93034;-70
2022/01/02 09:25:53;;;;;;;14.88;3.85;;;;;;;;;;4978943;28;94720;-69
2022/01/02 09:28:19;;;;;;;7.35;4.53;;;;;;;;;;4977679;28;91784;-71
2022/01/02 09:30:46;;;;;;;5.88;3.90;;;;;;;;;;4974968;28;92475;-70
2022/01/02 09:33:12;;;;;;;7.15;4.53;;;;;;;;;;4981498;28;93826;-71
2022/01/02 09:35:41;;;;;;;9.02;3.95;;;;;;;;;;4979186;28;97159;-70
2022/01/02 09:38:08;;;;;;;6.93;4.43;;;;;;;;;;4975341;28;93077;-70
2022/01/02 09:40:34;;;;;;;9.75;4.65;;;;;;;;;;4975809;28;93965;-70
2022/01/02 09:43:02;;;;;;;10.15;4.35;;;;;;;;;;4997837;28;94242;-70
2022/01/02 09:45:29;;;;;;;8.98;4.47;;;;;;;;;;4994290;28;93785;-70
2022/01/02 09:47:55;;;;;;;3.92;3.53;;;;;;;;;;4977906;28;94598;-70
2022/01/02 09:50:21;;;;;;;14.35;5.05;;;;;;;;;;4975212;28;92471;-70
2022/01/02 09:52:49;;;;;;;8.40;5.13;;;;;;;;;;4976154;28;94083;-70
2022/01/02 09:55:15;;;;;;;8.18;5.15;;;;;;;;;;4987697;28;94268;-70
2022/01/02 09:57:42;;;;;;;6.28;4.72;;;;;;;;;;4994678;28;92478;-69
2022/01/02 10:00:09;;;;;;;7.35;5.00;;;;;;;;;;4994742;28;95298;-69
2022/01/02 10:03:03;;;;;;;10.57;5.22;;;;;;;;;;4998107;28;92745;-69
2022/01/02 10:05:47;;;;;;;10.02;4.70;;;;;;;;;;4973929;28;93178;-69
2022/01/02 10:08:20;;;;;;;9.60;4.25;;;;;;;;;;4975340;28;94293;-69
2022/01/02 10:10:46;;;;;;;5.93;4.38;;;;;;;;;;4975543;28;92480;-70
2022/01/02 10:13:13;;;;;;;13.00;4.90;;;;;;;;;;4987490;28;94421;-70
2022/01/02 10:15:39;;;;;;;10.88;5.10;;;;;;;;;;4994841;28;93187;-70
2022/01/02 10:18:09;;;;;;;10.00;5.03;;;;;;;;;;4994210;28;91725;-70
2022/01/02 10:20:38;;;;;;;14.10;5.13;;;;;;;;;;4988068;28;93138;-70
2022/01/02 10:23:06;;;;;;;8.63;4.82;;;;;;;;;;4991060;28;94559;-70
2022/01/02 10:25:43;;;;;;;11.55;4.38;;;;;;;;;;4979556;28;95315;-69
2022/01/02 10:28:27;;;;;;;15.43;5.00;;;;;;;;;;4981947;28;93746;-69
2022/01/02 10:31:04;;;;;;;10.38;4.97;;;;;;;;;;4975891;28;92504;-69
2022/01/02 10:33:50;;;;;;;9.15;4.35;;;;;;;;;;4976403;28;93007;-70
2022/01/02 10:36:30;;;;;;;11.30;5.28;;;;;;;;;;4986024;28;93298;-69
2022/01/02 10:39:01;;;;;;;12.73;4.93;;;;;;;;;;4992950;28;92450;-71
2022/01/02 10:41:35;;;;;;;11.43;5.05;;;;;;;;;;4988320;28;93149;-69
2022/01/02 10:44:18;;;;;;;9.20;4.70;;;;;;;;;;4981115;28;92706;-70
2022/01/02 10:47:02;;;;;;;11.77;5.25;;;;;;;;;;4975119;28;93027;-71
2022/01/02 10:49:48;;;;;;;8.13;4.40;;;;;;;;;;4978526;28;93741;-71
2022/01/02 10:52:18;;;;;;;11.52;4.40;;;;;;;;;;4974289;28;94903;-71
2022/01/02 10:54:44;;;;;;;13.43;5.72;;;;;;;;;;4974702;28;96003;-69
2022/01/02 10:57:11;;;;;;;11.00;4.20;;;;;;;;;;4980161;28;95553;-70
2022/01/02 10:59:38;;;;;;;7.82;4.85;;;;;;;;;;4978281;28;94107;-70
2022/01/02 11:02:05;;;;;;;12.55;5.22;;;;;;;;;;4977206;28;95177;-69
2022/01/02 11:04:33;;;;;;;9.65;4.78;;;;;;;;;;4974900;28;94164;-69
2022/01/02 11:07:01;;;;;;;14.93;4.85;;;;;;;;;;4977452;28;92596;-70
2022/01/02 11:09:28;;;;;;;9.90;4.55;;;;;;;;;;4975022;28;93251;-70
2022/01/02 11:11:55;;;;;;;11.15;5.35;;;;;;;;;;4978389;28;94314;-70
2022/01/02 11:14:21;;;;;;;13.50;5.50;;;;;;;;;;4973973;28;95589;-70
2022/01/02 11:16:49;;;;;;;12.70;4.88;;;;;;;;;;4973444;28;96535;-70
2022/01/02 11:19:16;;;;;;;13.07;5.00;;;;;;;;;;4974708;28;92569;-70
2022/01/02 11:21:43;;;;;;;15.63;5.95;;;;;;;;;;4980107;28;95187;-69
2022/01/02 11:24:12;;;;;;;12.25;5.07;;;;;;;;;;4974780;28;94057;-70
2022/01/02 11:26:57;;;;;;;11.40;5.20;;;;;;;;;;4974957;28;92834;-70
2022/01/02 11:29:27;;;;;;;16.73;5.05;;;;;;;;;;4985861;28;94354;-70
2022/01/02 11:31:53;;;;;;;11.05;5.38;;;;;;;;;;4977606;28;93328;-70
2022/01/02 11:34:24;;;;;;;14.55;5.63;;;;;;;;;;4978757;28;91805;-70
2022/01/02 11:36:52;;;;;;;10.50;5.15;;;;;;;;;;4980538;28;95416;-70
2022/01/02 11:39:18;;;;;;;7.53;5.25;;;;;;;;;;4974783;28;93025;-71
2022/01/02 11:41:46;;;;;;;12.77;4.57;;;;;;;;;;4973024;28;94896;-71
2022/01/02 11:44:13;;;;;;;13.80;4.95;;;;;;;;;;4974032;28;93453;-70
2022/01/02 11:46:39;;;;;;;16.42;5.35;;;;;;;;;;4979250;28;93259;-71
2022/01/02 11:49:13;;;;;;;13.98;5.05;;;;;;;;;;4974432;28;93971;-70
2022/01/02 11:51:58;;;;;;;14.57;5.43;;;;;;;;;;4973545;28;93175;-70
2022/01/02 11:54:31;;;;;;;12.40;4.80;;;;;;;;;;4974327;28;92607;-70
2022/01/02 11:56:58;;;;;;;;;;;;;;;;;;4977861;28;93478;-70
2022/01/02 11:59:39;;;;;;;14.40;4.55;;;;;;;;;;4974831;28;116636;-70
2022/01/02 12:02:10;;;;;;;15.40;4.75;;;;;;;;;;4974398;28;93571;-70
2022/01/02 12:05:15;;;;;;;15.32;4.93;;;;;;;;;;4973712;28;93900;-70
2022/01/02 12:07:52;;;;;;;13.20;4.10;;;;;;;;;;4935889;28;95117;-71
2022/01/02 12:10:23;;;;;;;15.18;4.75;;;;;;;;;;4932859;28;95562;-70
2022/01/02 12:12:55;;;;;;;16.58;4.38;;;;;;;;;;4955543;28;93133;-71
2022/01/02 12:15:22;;;;;;;9.27;4.22;;;;;;;;;;4973915;28;92941;-71
2022/01/02 12:18:07;;;;;;;11.93;4.43;;;;;;;;;;4978420;28;93079;-71
2022/01/02 12:21:00;;;;;;;14.45;3.80;;;;;;;;;;4981351;28;92578;-71
2022/01/02 12:23:29;;;;;;;13.88;3.50;;;;;;;;;;4974295;28;93980;-71
2022/01/02 12:25:59;;;;;;;17.23;3.78;;;;;;;;;;4974413;28;92941;-71
2022/01/02 12:28:27;;;;;;;17.55;3.60;;;;;;;;;;4974439;28;92617;-71
2022/01/02 12:30:53;;;;;;;16.75;3.95;;;;;;;;;;4973885;28;94074;-71
2022/01/02 12:33:23;;;;;;;17.33;3.20;;;;;;;;;;4971592;28;96537;-71
2022/01/02 12:35:49;;;;;;;18.80;3.63;;;;;;;;;;4973961;28;92458;-71
2022/01/02 12:38:16;;;;;;;17.70;3.65;;;;;;;;;;4974300;28;93042;-70
2022/01/02 12:40:42;;;;;;;10.13;3.00;;;;;;;;;;4977174;28;94531;-71
2022/01/02 12:43:09;;;;;;;10.77;2.38;;;;;;;;;;4973560;28;94158;-71
2022/01/02 12:45:36;;;;;;;8.80;2.72;;;;;;;;;;4996693;28;93478;-71
2022/01/02 12:48:03;;;;;;;9.13;2.13;;;;;;;;;;4982595;28;92957;-71
2022/01/02 12:50:31;;;;;;;8.07;3.15;;;;;;;;;;4974264;28;93784;-71
2022/01/02 12:52:58;;;;;;;7.50;2.65;;;;;;;;;;4972929;28;94096;-71
2022/01/02 12:55:25;;;;;;;11.70;2.22;;;;;;;;;;4974134;28;94161;-71
2022/01/02 12:58:04;;;;;;;7.88;2.90;;;;;;;;;;4973462;28;94847;-71
2022/01/02 13:00:31;;;;;;;18.95;2.97;;;;;;;;;;4972653;28;94084;-71
2022/01/02 13:02:58;;;;;;;12.30;3.28;;;;;;;;;;4976573;28;92396;-71
2022/01/02 13:05:24;;;;;;;13.23;3.03;;;;;;;;;;4973185;28;93180;-71
2022/01/02 13:07:58;;;;;;;9.48;2.55;;;;;;;;;;4973020;28;92538;-70
2022/01/02 13:10:25;;;;;;;9.25;2.50;;;;;;;;;;4973431;28;94163;-70
2022/01/02 13:12:51;;;;;;;8.68;2.20;;;;;;;;;;4974171;28;93826;-71
2022/01/02 13:15:18;;;;;;;7.45;2.28;;;;;;;;;;4972945;28;91923;-70
2022/01/02 13:17:55;;;;;;;9.23;2.67;;;;;;;;;;4973619;28;92432;-71
2022/01/02 13:20:21;;;;;;;8.23;2.25;;;;;;;;;;4984963;28;93639;-69
2022/01/02 13:22:52;;;;;;;9.70;2.65;;;;;;;;;;4982047;28;94883;-69
2022/01/02 13:25:29;;;;;;;8.80;2.70;;;;;;;;;;4992271;28;96145;-70
2022/01/02 13:28:00;;;;;;;8.75;2.42;;;;;;;;;;4987763;28;92653;-69
2022/01/02 13:30:28;;;;;;;7.20;2.38;;;;;;;;;;4985766;28;93298;-70
2022/01/02 13:32:55;;;;;;;12.95;2.70;;;;;;;;;;4977305;28;94138;-70
2022/01/02 13:35:25;;;;;;;9.15;2.33;;;;;;;;;;4975669;28;92505;-70
2022/01/02 13:38:00;;;;;;;10.45;2.42;;;;;;;;;;4981015;28;94701;-70
2022/01/02 13:40:28;;;;;;;13.70;2.20;;;;;;;;;;4983104;28;93536;-69
2022/01/02 13:42:55;;;;;;;16.00;3.25;;;;;;;;;;4981792;28;93696;-69
2022/01/02 13:45:26;;;;;;;9.85;2.50;;;;;;;;;;4981191;28;93308;-70
2022/01/02 13:48:10;;;;;;;8.30;2.35;;;;;;;;;;4984777;28;96121;-70
2022/01/02 13:50:43;;;;;;;7.85;2.38;;;;;;;;;;4985115;28;95547;-70
2022/01/02 13:53:17;;;;;;;14.25;2.95;;;;;;;;;;4987365;28;94593;-69
2022/01/02 13:55:45;;;;;;;7.85;2.72;;;;;;;;;;4985089;28;93024;-70
2022/01/02 13:58:19;;;;;;;12.80;3.35;;;;;;;;;;4990041;28;93002;-71
2022/01/02 14:00:46;;;;;;;16.63;3.67;;;;;;;;;;4976599;28;93432;-71
2022/01/02 14:03:25;;;;;;;11.25;2.92;;;;;;;;;;4977452;28;92597;-71
2022/01/02 14:05:51;;;;;;;11.93;3.15;;;;;;;;;;4977420;28;94099;-70
2022/01/02 14:08:18;;;;;;;15.45;2.90;;;;;;;;;;4977860;28;94128;-70
2022/01/02 14:11:01;;;;;;;7.85;2.67;;;;;;;;;;4984438;28;92720;-70
2022/01/02 14:13:27;;;;;;;14.15;3.20;;;;;;;;;;4983120;28;96108;-70
2022/01/02 14:16:01;;;;;;;15.52;3.30;;;;;;;;;;4977454;28;92524;-70
2022/01/02 14:18:28;;;;;;;17.40;3.40;;;;;;;;;;4980673;28;93091;-70
2022/01/02 14:21:00;;;;;;;16.45;3.55;;;;;;;;;;4983856;28;93526;-70
2022/01/02 14:23:30;;;;;;;12.07;2.58;;;;;;;;;;4980836;28;94486;-70
2022/01/02 14:25:57;;;;;;;15.30;3.28;;;;;;;;;;4976835;28;93238;-70
2022/01/02 14:28:24;;;;;;;12.13;3.55;;;;;;;;;;4986933;28;94806;-70
2022/01/02 14:30:51;;;;;;;12.63;3.17;;;;;;;;;;4986702;28;91785;-71
2022/01/02 14:33:18;;;;;;;15.15;2.72;;;;;;;;;;4976543;28;94558;-70
2022/01/02 14:35:44;;;;;;;9.70;2.35;;;;;;;;;;4982599;28;92456;-70
2022/01/02 14:38:12;;;;;;;12.27;2.50;;;;;;;;;;4981132;28;94927;-69
2022/01/02 14:40:38;;;;;;;17.25;2.50;;;;;;;;;;4975525;28;93850;-68
2022/01/02 14:43:04;;;;;;;15.98;2.80;;;;;;;;;;4982475;28;92631;-70
2022/01/02 14:45:31;;;;;;;8.52;2.65;;;;;;;;;;4976585;28;93897;-70
2022/01/02 14:47:57;;;;;;;9.52;3.28;;;;;;;;;;4984785;28;96409;-70
2022/01/02 14:50:24;;;;;;;12.88;2.60;;;;;;;;;;4982894;28;94072;-69